sensor_id;sensor_type;location;lat;lon;timestamp;pressure;altitude;pressure_sealevel;temperature;humidity
18819;BME280;9537;45.594;9.294;2023-07-09T00:00:37;100113.53;;;24.91;71.58
18819;BME280;9537;45.594;9.294;2023-07-09T00:01:40;100106.50;;;24.90;70.89
18819;BME280;9537;45.594;9.294;2023-07-09T00:02:41;100104.56;;;24.85;71.07
18819;BME280;9537;45.594;9.294;2023-07-09T00:03:42;100102.44;;;24.87;71.12
18819;BME280;9537;45.594;9.294;2023-07-09T00:04:43;100110.50;;;24.82;71.58
18819;BME280;9537;45.594;9.294;2023-07-09T00:05:47;100108.88;;;24.81;71.44
18819;BME280;9537;45.594;9.294;2023-07-09T00:06:48;100106.41;;;24.80;71.51
18819;BME280;9537;45.594;9.294;2023-07-09T00:07:50;100103.13;;;24.78;72.01
18819;BME280;9537;45.594;9.294;2023-07-09T00:08:51;100112.56;;;24.75;71.28
18819;BME280;9537;45.594;9.294;2023-07-09T00:09:55;100115.03;;;24.77;71.41
18819;BME280;9537;45.594;9.294;2023-07-09T00:10:57;100110.13;;;24.73;71.61
18819;BME280;9537;45.594;9.294;2023-07-09T00:11:59;100108.50;;;24.72;72.00
18819;BME280;9537;45.594;9.294;2023-07-09T00:12:59;100106.31;;;24.69;71.88
18819;BME280;9537;45.594;9.294;2023-07-09T00:14:01;100101.97;;;24.68;72.20
18819;BME280;9537;45.594;9.294;2023-07-09T00:15:02;100102.78;;;24.69;71.53
18819;BME280;9537;45.594;9.294;2023-07-09T00:16:10;100101.91;;;24.63;71.73
18819;BME280;9537;45.594;9.294;2023-07-09T00:17:26;100098.34;;;24.58;72.29
18819;BME280;9537;45.594;9.294;2023-07-09T00:18:27;100101.56;;;24.55;72.30
18819;BME280;9537;45.594;9.294;2023-07-09T00:19:29;100099.38;;;24.52;72.46
18819;BME280;9537;45.594;9.294;2023-07-09T00:20:30;100099.66;;;24.50;72.47
18819;BME280;9537;45.594;9.294;2023-07-09T00:21:32;100103.72;;;24.53;72.91
18819;BME280;9537;45.594;9.294;2023-07-09T00:22:34;100106.66;;;24.51;72.63
18819;BME280;9537;45.594;9.294;2023-07-09T00:23:36;100098.56;;;24.51;72.65
18819;BME280;9537;45.594;9.294;2023-07-09T00:24:38;100099.38;;;24.52;72.81
18819;BME280;9537;45.594;9.294;2023-07-09T00:25:42;100101.84;;;24.53;73.07
18819;BME280;9537;45.594;9.294;2023-07-09T00:26:44;100103.72;;;24.53;73.28
18819;BME280;9537;45.594;9.294;2023-07-09T00:27:47;100100.19;;;24.52;73.29
18819;BME280;9537;45.594;9.294;2023-07-09T00:28:50;100102.59;;;24.48;73.63
18819;BME280;9537;45.594;9.294;2023-07-09T00:29:52;100095.00;;;24.45;73.85
18819;BME280;9537;45.594;9.294;2023-07-09T00:30:52;100099.59;;;24.45;73.92
18819;BME280;9537;45.594;9.294;2023-07-09T00:31:54;100099.06;;;24.48;73.41
18819;BME280;9537;45.594;9.294;2023-07-09T00:32:55;100090.16;;;24.47;73.70
18819;BME280;9537;45.594;9.294;2023-07-09T00:33:56;100093.66;;;24.48;73.65
18819;BME280;9537;45.594;9.294;2023-07-09T00:35:00;100103.16;;;24.50;73.38
18819;BME280;9537;45.594;9.294;2023-07-09T00:36:10;100095.81;;;24.46;73.58
18819;BME280;9537;45.594;9.294;2023-07-09T00:37:15;100094.19;;;24.45;73.60
18819;BME280;9537;45.594;9.294;2023-07-09T00:38:18;100097.69;;;24.45;73.45
18819;BME280;9537;45.594;9.294;2023-07-09T00:39:22;100098.50;;;24.46;73.20
18819;BME280;9537;45.594;9.294;2023-07-09T00:40:24;100105.47;;;24.42;73.22
18819;BME280;9537;45.594;9.294;2023-07-09T00:41:27;100105.97;;;24.39;73.32
18819;BME280;9537;45.594;9.294;2023-07-09T00:42:29;100102.69;;;24.37;73.29
18819;BME280;9537;45.594;9.294;2023-07-09T00:43:31;100100.50;;;24.34;73.58
18819;BME280;9537;45.594;9.294;2023-07-09T00:44:35;100107.28;;;24.36;73.46
18819;BME280;9537;45.594;9.294;2023-07-09T00:45:36;100102.97;;;24.35;73.44
18819;BME280;9537;45.594;9.294;2023-07-09T00:47:13;100106.47;;;24.36;73.63
18819;BME280;9537;45.594;9.294;2023-07-09T00:48:17;100098.03;;;24.32;73.71
18819;BME280;9537;45.594;9.294;2023-07-09T00:49:27;100115.88;;;24.33;73.82
18819;BME280;9537;45.594;9.294;2023-07-09T00:50:34;100101.81;;;24.31;74.22
18819;BME280;9537;45.594;9.294;2023-07-09T00:51:40;100104.78;;;24.30;73.92
18819;BME280;9537;45.594;9.294;2023-07-09T00:52:46;100112.88;;;24.30;74.72
18819;BME280;9537;45.594;9.294;2023-07-09T00:53:53;100111.50;;;24.27;74.27
18819;BME280;9537;45.594;9.294;2023-07-09T00:54:54;100114.22;;;24.27;74.13
18819;BME280;9537;45.594;9.294;2023-07-09T00:56:00;100112.31;;;24.27;74.55
18819;BME280;9537;45.594;9.294;2023-07-09T00:57:08;100113.38;;;24.26;74.23
18819;BME280;9537;45.594;9.294;2023-07-09T00:58:13;100121.16;;;24.23;73.74
18819;BME280;9537;45.594;9.294;2023-07-09T00:59:18;100112.81;;;24.24;73.87
18819;BME280;9537;45.594;9.294;2023-07-09T01:00:23;100117.66;;;24.22;74.08
18819;BME280;9537;45.594;9.294;2023-07-09T01:01:25;100121.16;;;24.23;74.31
18819;BME280;9537;45.594;9.294;2023-07-09T01:02:28;100116.03;;;24.21;74.08
18819;BME280;9537;45.594;9.294;2023-07-09T01:03:33;100118.66;;;24.16;74.36
18819;BME280;9537;45.594;9.294;2023-07-09T01:04:36;100109.41;;;24.12;74.64
18819;BME280;9537;45.594;9.294;2023-07-09T01:05:40;100115.88;;;24.11;74.86
18819;BME280;9537;45.594;9.294;2023-07-09T01:06:45;100120.22;;;24.12;74.72
18819;BME280;9537;45.594;9.294;2023-07-09T01:07:47;100112.13;;;24.12;74.83
18819;BME280;9537;45.594;9.294;2023-07-09T01:08:51;100110.50;;;24.11;74.48
18819;BME280;9537;45.594;9.294;2023-07-09T01:09:53;100120.16;;;24.07;75.03
18819;BME280;9537;45.594;9.294;2023-07-09T01:10:57;100121.78;;;24.08;75.04
18819;BME280;9537;45.594;9.294;2023-07-09T01:11:58;100112.63;;;24.09;74.89
18819;BME280;9537;45.594;9.294;2023-07-09T01:13:02;100124.47;;;24.08;74.80
18819;BME280;9537;45.594;9.294;2023-07-09T01:14:04;100116.97;;;24.10;75.07
18819;BME280;9537;45.594;9.294;2023-07-09T01:15:08;100115.06;;;24.11;74.55
18819;BME280;9537;45.594;9.294;2023-07-09T01:16:11;100117.50;;;24.12;74.43
18819;BME280;9537;45.594;9.294;2023-07-09T01:17:13;100123.97;;;24.11;74.51
18819;BME280;9537;45.594;9.294;2023-07-09T01:18:14;100121.56;;;24.10;74.23
18819;BME280;9537;45.594;9.294;2023-07-09T01:19:21;100122.59;;;24.09;73.93
18819;BME280;9537;45.594;9.294;2023-07-09T01:20:24;100112.31;;;24.05;73.96
18819;BME280;9537;45.594;9.294;2023-07-09T01:21:30;100122.28;;;24.05;73.71
18819;BME280;9537;45.594;9.294;2023-07-09T01:22:32;100117.13;;;24.03;73.82
18819;BME280;9537;45.594;9.294;2023-07-09T01:23:33;100116.31;;;24.03;73.51
18819;BME280;9537;45.594;9.294;2023-07-09T01:24:53;100113.88;;;24.01;73.55
18819;BME280;9537;45.594;9.294;2023-07-09T01:25:54;100118.72;;;23.99;73.53
18819;BME280;9537;45.594;9.294;2023-07-09T01:26:56;100115.19;;;23.99;73.86
18819;BME280;9537;45.594;9.294;2023-07-09T01:27:57;100116.25;;;23.98;73.79
18819;BME280;9537;45.594;9.294;2023-07-09T01:28:59;100113.25;;;23.94;73.77
18819;BME280;9537;45.594;9.294;2023-07-09T01:30:02;100121.91;;;23.96;74.09
18819;BME280;9537;45.594;9.294;2023-07-09T01:31:04;100118.63;;;23.94;74.24
18819;BME280;9537;45.594;9.294;2023-07-09T01:32:05;100116.75;;;23.95;74.08
18819;BME280;9537;45.594;9.294;2023-07-09T01:33:07;100112.69;;;23.92;74.59
18819;BME280;9537;45.594;9.294;2023-07-09T01:34:10;100122.66;;;23.92;74.46
18819;BME280;9537;45.594;9.294;2023-07-09T01:35:11;100113.16;;;23.89;74.35
18819;BME280;9537;45.594;9.294;2023-07-09T01:36:16;100117.75;;;23.89;74.47
18819;BME280;9537;45.594;9.294;2023-07-09T01:37:21;100126.34;;;23.86;74.44
18819;BME280;9537;45.594;9.294;2023-07-09T01:38:22;100114.16;;;23.83;74.46
18819;BME280;9537;45.594;9.294;2023-07-09T01:39:25;100125.78;;;23.83;74.63
18819;BME280;9537;45.594;9.294;2023-07-09T01:40:27;100123.56;;;23.80;74.61
18819;BME280;9537;45.594;9.294;2023-07-09T01:41:29;100116.56;;;23.79;74.90
18819;BME280;9537;45.594;9.294;2023-07-09T01:42:34;100124.41;;;23.81;74.66
18819;BME280;9537;45.594;9.294;2023-07-09T01:43:35;100110.09;;;23.80;74.73
18819;BME280;9537;45.594;9.294;2023-07-09T01:44:37;100116.88;;;23.83;74.60
18819;BME280;9537;45.594;9.294;2023-07-09T01:45:38;100114.16;;;23.83;74.87
18819;BME280;9537;45.594;9.294;2023-07-09T01:46:40;100122.03;;;23.85;74.42
18819;BME280;9537;45.594;9.294;2023-07-09T01:47:42;100124.72;;;23.85;74.44
18819;BME280;9537;45.594;9.294;2023-07-09T01:48:45;100131.16;;;23.83;74.23
18819;BME280;9537;45.594;9.294;2023-07-09T01:49:46;100125.78;;;23.83;74.46
18819;BME280;9537;45.594;9.294;2023-07-09T01:50:48;100123.66;;;23.86;74.34
18819;BME280;9537;45.594;9.294;2023-07-09T01:51:49;100127.41;;;23.85;74.10
18819;BME280;9537;45.594;9.294;2023-07-09T01:52:53;100124.66;;;23.79;74.47
18819;BME280;9537;45.594;9.294;2023-07-09T01:53:54;100127.59;;;23.78;74.50
18819;BME280;9537;45.594;9.294;2023-07-09T01:54:57;100125.16;;;23.76;74.63
18819;BME280;9537;45.594;9.294;2023-07-09T01:55:57;100119.75;;;23.76;74.46
18819;BME280;9537;45.594;9.294;2023-07-09T01:57:14;100127.03;;;23.76;74.94
18819;BME280;9537;45.594;9.294;2023-07-09T01:58:15;100131.13;;;23.78;74.42
18819;BME280;9537;45.594;9.294;2023-07-09T01:59:16;100129.16;;;23.74;74.64
18819;BME280;9537;45.594;9.294;2023-07-09T02:00:17;100124.03;;;23.72;74.66
18819;BME280;9537;45.594;9.294;2023-07-09T02:01:19;100123.19;;;23.72;74.71
18819;BME280;9537;45.594;9.294;2023-07-09T02:02:20;100120.00;;;23.75;74.61
18819;BME280;9537;45.594;9.294;2023-07-09T02:03:21;100124.03;;;23.72;74.50
18819;BME280;9537;45.594;9.294;2023-07-09T02:04:25;100128.84;;;23.70;74.92
18819;BME280;9537;45.594;9.294;2023-07-09T02:05:30;100119.31;;;23.68;75.13
18819;BME280;9537;45.594;9.294;2023-07-09T02:06:32;100122.25;;;23.66;75.01
18819;BME280;9537;45.594;9.294;2023-07-09T02:07:32;100121.44;;;23.66;75.00
18819;BME280;9537;45.594;9.294;2023-07-09T02:08:34;100128.16;;;23.63;75.33
18819;BME280;9537;45.594;9.294;2023-07-09T02:09:36;100120.06;;;23.63;75.01
18819;BME280;9537;45.594;9.294;2023-07-09T02:10:37;100125.94;;;23.60;75.37
18819;BME280;9537;45.594;9.294;2023-07-09T02:11:39;100123.53;;;23.58;75.55
18819;BME280;9537;45.594;9.294;2023-07-09T02:12:39;100124.31;;;23.59;75.20
18819;BME280;9537;45.594;9.294;2023-07-09T02:13:41;100127.84;;;23.59;75.24
18819;BME280;9537;45.594;9.294;2023-07-09T02:14:43;100130.03;;;23.63;75.38
18819;BME280;9537;45.594;9.294;2023-07-09T02:15:45;100122.53;;;23.65;75.11
18819;BME280;9537;45.594;9.294;2023-07-09T02:16:45;100130.84;;;23.63;75.02
18819;BME280;9537;45.594;9.294;2023-07-09T02:17:46;100125.13;;;23.59;75.46
18819;BME280;9537;45.594;9.294;2023-07-09T02:18:48;100126.75;;;23.60;75.45
18819;BME280;9537;45.594;9.294;2023-07-09T02:19:49;100127.59;;;23.61;75.26
18819;BME280;9537;45.594;9.294;2023-07-09T02:20:50;100125.13;;;23.59;75.38
18819;BME280;9537;45.594;9.294;2023-07-09T02:21:51;100123.75;;;23.57;75.16
18819;BME280;9537;45.594;9.294;2023-07-09T02:22:53;100125.88;;;23.55;75.35
18819;BME280;9537;45.594;9.294;2023-07-09T02:23:55;100128.56;;;23.55;75.23
18819;BME280;9537;45.594;9.294;2023-07-09T02:24:57;100125.06;;;23.54;75.27
18819;BME280;9537;45.594;9.294;2023-07-09T02:25:57;100122.13;;;23.56;75.30
18819;BME280;9537;45.594;9.294;2023-07-09T02:27:02;100117.31;;;23.58;74.87
18819;BME280;9537;45.594;9.294;2023-07-09T02:28:04;100118.94;;;23.59;74.77
18819;BME280;9537;45.594;9.294;2023-07-09T02:29:06;100123.53;;;23.58;75.00
18819;BME280;9537;45.594;9.294;2023-07-09T02:30:08;100121.06;;;23.57;74.93
18819;BME280;9537;45.594;9.294;2023-07-09T02:31:11;100117.78;;;23.55;75.09
18819;BME280;9537;45.594;9.294;2023-07-09T02:32:17;100117.78;;;23.55;75.20
18819;BME280;9537;45.594;9.294;2023-07-09T02:33:19;100111.25;;;23.51;75.27
18819;BME280;9537;45.594;9.294;2023-07-09T02:34:20;100114.19;;;23.49;75.31
18819;BME280;9537;45.594;9.294;2023-07-09T02:35:26;100114.78;;;23.51;75.04
18819;BME280;9537;45.594;9.294;2023-07-09T02:36:26;100116.88;;;23.49;75.12
18819;BME280;9537;45.594;9.294;2023-07-09T02:37:28;100115.25;;;23.48;74.93
18819;BME280;9537;45.594;9.294;2023-07-09T02:38:29;100119.84;;;23.48;75.28
18819;BME280;9537;45.594;9.294;2023-07-09T02:39:32;100120.06;;;23.46;75.14
18819;BME280;9537;45.594;9.294;2023-07-09T02:40:33;100117.38;;;23.46;75.44
18819;BME280;9537;45.594;9.294;2023-07-09T02:41:35;100120.91;;;23.47;75.35
18819;BME280;9537;45.594;9.294;2023-07-09T02:42:36;100113.06;;;23.45;75.27
18819;BME280;9537;45.594;9.294;2023-07-09T02:43:37;100117.72;;;23.50;75.16
18819;BME280;9537;45.594;9.294;2023-07-09T02:44:39;100121.47;;;23.49;74.62
18819;BME280;9537;45.594;9.294;2023-07-09T02:45:41;100116.16;;;23.37;75.32
18819;BME280;9537;45.594;9.294;2023-07-09T02:46:42;100121.25;;;23.33;75.57
18819;BME280;9537;45.594;9.294;2023-07-09T02:47:42;100124.16;;;23.32;75.89
18819;BME280;9537;45.594;9.294;2023-07-09T02:48:44;100129.25;;;23.28;76.05
18819;BME280;9537;45.594;9.294;2023-07-09T02:49:45;100128.44;;;23.28;76.13
18819;BME280;9537;45.594;9.294;2023-07-09T02:50:46;100129.16;;;23.23;76.39
18819;BME280;9537;45.594;9.294;2023-07-09T02:51:47;100140.19;;;23.22;76.68
18819;BME280;9537;45.594;9.294;2023-07-09T02:52:49;100139.38;;;23.21;76.79
18819;BME280;9537;45.594;9.294;2023-07-09T02:53:49;100146.63;;;23.21;76.79
18819;BME280;9537;45.594;9.294;2023-07-09T02:54:51;100140.41;;;23.20;76.78
18819;BME280;9537;45.594;9.294;2023-07-09T02:55:53;100140.91;;;23.17;77.25
18819;BME280;9537;45.594;9.294;2023-07-09T02:56:54;100144.91;;;23.14;77.36
18819;BME280;9537;45.594;9.294;2023-07-09T02:57:58;100140.81;;;23.12;77.26
18819;BME280;9537;45.594;9.294;2023-07-09T02:58:59;100140.81;;;23.12;77.32
18819;BME280;9537;45.594;9.294;2023-07-09T03:00:01;100138.13;;;23.12;77.60
18819;BME280;9537;45.594;9.294;2023-07-09T03:01:03;100150.56;;;23.13;77.42
18819;BME280;9537;45.594;9.294;2023-07-09T03:02:05;100149.47;;;23.14;77.63
18819;BME280;9537;45.594;9.294;2023-07-09T03:03:06;100150.78;;;23.11;77.72
18819;BME280;9537;45.594;9.294;2023-07-09T03:04:08;100141.31;;;23.09;77.75
18819;BME280;9537;45.594;9.294;2023-07-09T03:05:08;100146.69;;;23.09;78.41
18819;BME280;9537;45.594;9.294;2023-07-09T03:06:11;100149.38;;;23.09;78.18
18819;BME280;9537;45.594;9.294;2023-07-09T03:07:12;100153.97;;;23.08;78.25
18819;BME280;9537;45.594;9.294;2023-07-09T03:08:13;100152.94;;;23.09;78.47
18819;BME280;9537;45.594;9.294;2023-07-09T03:09:15;100151.59;;;23.12;78.45
18819;BME280;9537;45.594;9.294;2023-07-09T03:10:18;100152.66;;;23.11;78.16
18819;BME280;9537;45.594;9.294;2023-07-09T03:11:19;100149.16;;;23.10;77.98
18819;BME280;9537;45.594;9.294;2023-07-09T03:12:21;100154.28;;;23.12;77.86
18819;BME280;9537;45.594;9.294;2023-07-09T03:13:22;100153.25;;;23.13;77.76
18819;BME280;9537;45.594;9.294;2023-07-09T03:14:23;100151.84;;;23.10;77.78
18819;BME280;9537;45.594;9.294;2023-07-09T03:15:25;100147.78;;;23.08;77.80
18819;BME280;9537;45.594;9.294;2023-07-09T03:16:26;100148.00;;;23.06;77.64
18819;BME280;9537;45.594;9.294;2023-07-09T03:17:28;100150.47;;;23.08;77.74
18819;BME280;9537;45.594;9.294;2023-07-09T03:18:29;100151.03;;;23.10;77.64
18819;BME280;9537;45.594;9.294;2023-07-09T03:19:31;100152.66;;;23.11;77.33
18819;BME280;9537;45.594;9.294;2023-07-09T03:20:31;100156.16;;;23.11;77.18
18819;BME280;9537;45.594;9.294;2023-07-09T03:21:33;100152.94;;;23.09;77.08
18819;BME280;9537;45.594;9.294;2023-07-09T03:22:34;100152.03;;;23.04;77.38
18819;BME280;9537;45.594;9.294;2023-07-09T03:23:36;100157.63;;;23.02;77.38
18819;BME280;9537;45.594;9.294;2023-07-09T03:24:36;100151.44;;;23.02;77.70
18819;BME280;9537;45.594;9.294;2023-07-09T03:25:41;100156.00;;;23.01;77.70
18819;BME280;9537;45.594;9.294;2023-07-09T03:26:42;100154.34;;;23.00;77.95
18819;BME280;9537;45.594;9.294;2023-07-09T03:27:47;100153.53;;;23.00;77.88
18819;BME280;9537;45.594;9.294;2023-07-09T03:28:47;100158.13;;;22.99;78.26
18819;BME280;9537;45.594;9.294;2023-07-09T03:29:49;100161.88;;;22.98;78.29
18819;BME280;9537;45.594;9.294;2023-07-09T03:30:53;100159.19;;;22.98;78.27
18819;BME280;9537;45.594;9.294;2023-07-09T03:31:55;100149.81;;;23.01;78.27
18819;BME280;9537;45.594;9.294;2023-07-09T03:32:56;100163.50;;;22.99;78.34
18819;BME280;9537;45.594;9.294;2023-07-09T03:33:58;100158.94;;;23.00;78.42
18819;BME280;9537;45.594;9.294;2023-07-09T03:34:58;100160.81;;;22.99;78.39
18819;BME280;9537;45.594;9.294;2023-07-09T03:36:00;100159.41;;;22.97;78.61
18819;BME280;9537;45.594;9.294;2023-07-09T03:37:01;100162.13;;;22.97;78.51
18819;BME280;9537;45.594;9.294;2023-07-09T03:38:03;100160.50;;;22.96;78.91
18819;BME280;9537;45.594;9.294;2023-07-09T03:39:04;100156.72;;;22.97;78.88
18819;BME280;9537;45.594;9.294;2023-07-09T03:40:09;100158.13;;;22.99;78.28
18819;BME280;9537;45.594;9.294;2023-07-09T03:41:12;100160.34;;;23.02;78.08
18819;BME280;9537;45.594;9.294;2023-07-09T03:42:13;100160.91;;;23.04;77.78
18819;BME280;9537;45.594;9.294;2023-07-09T03:43:14;100166.63;;;23.08;77.62
18819;BME280;9537;45.594;9.294;2023-07-09T03:44:16;100162.84;;;23.09;77.56
18819;BME280;9537;45.594;9.294;2023-07-09T03:45:16;100166.13;;;23.11;77.59
18819;BME280;9537;45.594;9.294;2023-07-09T03:46:18;100169.91;;;23.10;77.43
18819;BME280;9537;45.594;9.294;2023-07-09T03:47:19;100166.63;;;23.08;77.61
18819;BME280;9537;45.594;9.294;2023-07-09T03:48:21;100163.94;;;23.08;77.56
18819;BME280;9537;45.594;9.294;2023-07-09T03:49:21;100163.59;;;23.04;77.52
18819;BME280;9537;45.594;9.294;2023-07-09T03:50:23;100160.91;;;23.04;77.35
18819;BME280;9537;45.594;9.294;2023-07-09T03:51:24;100166.31;;;23.04;77.03
18819;BME280;9537;45.594;9.294;2023-07-09T03:52:25;100165.97;;;23.01;77.08
18819;BME280;9537;45.594;9.294;2023-07-09T03:53:26;100161.63;;;23.00;77.15
18819;BME280;9537;45.594;9.294;2023-07-09T03:54:28;100162.94;;;22.97;77.21
18819;BME280;9537;45.594;9.294;2023-07-09T03:55:29;100164.19;;;22.94;77.12
18819;BME280;9537;45.594;9.294;2023-07-09T03:56:32;100169.03;;;22.92;77.22
18819;BME280;9537;45.594;9.294;2023-07-09T03:57:33;100157.19;;;22.93;77.24
18819;BME280;9537;45.594;9.294;2023-07-09T03:58:35;100167.63;;;22.90;77.39
18819;BME280;9537;45.594;9.294;2023-07-09T03:59:36;100166.81;;;22.89;77.38
18819;BME280;9537;45.594;9.294;2023-07-09T04:00:40;100176.41;;;22.85;77.67
18819;BME280;9537;45.594;9.294;2023-07-09T04:01:41;100171.28;;;22.84;77.66
18819;BME280;9537;45.594;9.294;2023-07-09T04:02:46;100168.00;;;22.82;77.79
18819;BME280;9537;45.594;9.294;2023-07-09T04:03:47;100172.31;;;22.83;77.79
18819;BME280;9537;45.594;9.294;2023-07-09T04:04:48;100167.19;;;22.81;77.73
18819;BME280;9537;45.594;9.294;2023-07-09T04:05:49;100171.53;;;22.82;77.65
18819;BME280;9537;45.594;9.294;2023-07-09T04:06:51;100174.22;;;22.82;77.55
18819;BME280;9537;45.594;9.294;2023-07-09T04:07:52;100166.38;;;22.81;77.83
18819;BME280;9537;45.594;9.294;2023-07-09T04:08:54;100177.16;;;22.81;77.72
18819;BME280;9537;45.594;9.294;2023-07-09T04:09:54;100171.53;;;22.82;77.95
18819;BME280;9537;45.594;9.294;2023-07-09T04:10:59;100171.53;;;22.82;77.55
18819;BME280;9537;45.594;9.294;2023-07-09T04:12:01;100174.22;;;22.82;77.76
18819;BME280;9537;45.594;9.294;2023-07-09T04:13:03;100167.44;;;22.80;77.82
18819;BME280;9537;45.594;9.294;2023-07-09T04:14:04;100170.38;;;22.78;78.07
18819;BME280;9537;45.594;9.294;2023-07-09T04:15:08;100171.19;;;22.79;78.05
18819;BME280;9537;45.594;9.294;2023-07-09T04:16:09;100171.19;;;22.79;78.11
18819;BME280;9537;45.594;9.294;2023-07-09T04:17:12;100177.63;;;22.78;78.09
18819;BME280;9537;45.594;9.294;2023-07-09T04:18:12;100171.66;;;22.76;78.13
18819;BME280;9537;45.594;9.294;2023-07-09T04:19:14;100168.41;;;22.74;78.50
18819;BME280;9537;45.594;9.294;2023-07-09T04:20:15;100167.91;;;22.77;78.37
18819;BME280;9537;45.594;9.294;2023-07-09T04:21:17;100175.66;;;22.73;78.47
18819;BME280;9537;45.594;9.294;2023-07-09T04:22:17;100175.66;;;22.73;78.54
18819;BME280;9537;45.594;9.294;2023-07-09T04:23:19;100173.19;;;22.71;78.73
18819;BME280;9537;45.594;9.294;2023-07-09T04:24:20;100165.97;;;22.72;78.77
18819;BME280;9537;45.594;9.294;2023-07-09T04:25:22;100167.00;;;22.71;78.84
18819;BME280;9537;45.594;9.294;2023-07-09T04:26:23;100171.34;;;22.72;78.88
18819;BME280;9537;45.594;9.294;2023-07-09T04:27:26;100180.56;;;22.76;78.83
18819;BME280;9537;45.594;9.294;2023-07-09T04:28:27;100172.16;;;22.73;79.08
18819;BME280;9537;45.594;9.294;2023-07-09T04:29:30;100174.38;;;22.76;79.00
18819;BME280;9537;45.594;9.294;2023-07-09T04:30:34;100173.06;;;22.78;78.90
18819;BME280;9537;45.594;9.294;2023-07-09T04:31:36;100176.31;;;22.80;78.86
18819;BME280;9537;45.594;9.294;2023-07-09T04:32:37;100177.63;;;22.78;78.73
18819;BME280;9537;45.594;9.294;2023-07-09T04:33:38;100172.97;;;22.73;78.79
18819;BME280;9537;45.594;9.294;2023-07-09T04:34:39;100167.81;;;22.71;78.77
18819;BME280;9537;45.594;9.294;2023-07-09T04:35:41;100169.09;;;22.69;78.89
18819;BME280;9537;45.594;9.294;2023-07-09T04:36:42;100173.13;;;22.66;78.97
18819;BME280;9537;45.594;9.294;2023-07-09T04:37:43;100182.00;;;22.67;79.02
18819;BME280;9537;45.594;9.294;2023-07-09T04:38:44;100170.97;;;22.68;79.06
18819;BME280;9537;45.594;9.294;2023-07-09T04:39:46;100178.25;;;22.68;79.36
18819;BME280;9537;45.594;9.294;2023-07-09T04:40:47;100178.72;;;22.65;79.68
18819;BME280;9537;45.594;9.294;2023-07-09T04:41:49;100181.41;;;22.65;79.80
18819;BME280;9537;45.594;9.294;2023-07-09T04:42:51;100177.66;;;22.66;79.85
18819;BME280;9537;45.594;9.294;2023-07-09T04:43:52;100183.88;;;22.66;79.67
18819;BME280;9537;45.594;9.294;2023-07-09T04:44:54;100178.84;;;22.70;79.71
18819;BME280;9537;45.594;9.294;2023-07-09T04:45:54;100171.34;;;22.72;79.47
18819;BME280;9537;45.594;9.294;2023-07-09T04:46:56;100174.84;;;22.73;79.62
18819;BME280;9537;45.594;9.294;2023-07-09T04:47:57;100178.34;;;22.73;79.79
18819;BME280;9537;45.594;9.294;2023-07-09T04:48:59;100175.66;;;22.73;79.69
18819;BME280;9537;45.594;9.294;2023-07-09T04:50:01;100176.47;;;22.74;79.75
18819;BME280;9537;45.594;9.294;2023-07-09T04:51:03;100182.94;;;22.73;79.85
18819;BME280;9537;45.594;9.294;2023-07-09T04:52:04;100176.94;;;22.70;79.97
18819;BME280;9537;45.594;9.294;2023-07-09T04:53:06;100182.34;;;22.70;79.98
18819;BME280;9537;45.594;9.294;2023-07-09T04:54:07;100182.94;;;22.73;80.05
18819;BME280;9537;45.594;9.294;2023-07-09T04:55:08;100177.28;;;22.74;79.83
18819;BME280;9537;45.594;9.294;2023-07-09T04:56:09;100184.06;;;22.77;79.99
18819;BME280;9537;45.594;9.294;2023-07-09T04:57:12;100180.56;;;22.76;80.07
18819;BME280;9537;45.594;9.294;2023-07-09T04:58:14;100183.84;;;22.78;80.23
18819;BME280;9537;45.594;9.294;2023-07-09T04:59:15;100180.09;;;22.79;80.20
18819;BME280;9537;45.594;9.294;2023-07-09T05:00:16;100181.97;;;22.79;80.54
18819;BME280;9537;45.594;9.294;2023-07-09T05:01:18;100180.31;;;22.78;80.71
18819;BME280;9537;45.594;9.294;2023-07-09T05:02:19;100184.06;;;22.77;81.11
18819;BME280;9537;45.594;9.294;2023-07-09T05:03:21;100188.38;;;22.78;81.42
18819;BME280;9537;45.594;9.294;2023-07-09T05:04:21;100179.41;;;22.72;81.26
18819;BME280;9537;45.594;9.294;2023-07-09T05:05:23;100185.84;;;22.71;81.35
18819;BME280;9537;45.594;9.294;2023-07-09T05:06:24;100182.13;;;22.72;81.64
18819;BME280;9537;45.594;9.294;2023-07-09T05:07:25;100185.38;;;22.74;82.03
18819;BME280;9537;45.594;9.294;2023-07-09T05:08:26;100182.19;;;22.77;82.06
18819;BME280;9537;45.594;9.294;2023-07-09T05:09:28;100183.59;;;22.80;82.22
18819;BME280;9537;45.594;9.294;2023-07-09T05:10:28;100183.00;;;22.78;82.94
18819;BME280;9537;45.594;9.294;2023-07-09T05:11:34;100188.16;;;22.79;83.04
18819;BME280;9537;45.594;9.294;2023-07-09T05:12:35;100189.78;;;22.80;83.02
18819;BME280;9537;45.594;9.294;2023-07-09T05:13:37;100183.59;;;22.80;83.21
18819;BME280;9537;45.594;9.294;2023-07-09T05:14:39;100184.97;;;22.82;83.04
18819;BME280;9537;45.594;9.294;2023-07-09T05:15:41;100188.44;;;22.94;81.85
18819;BME280;9537;45.594;9.294;2023-07-09T05:16:44;100183.38;;;23.10;80.94
18819;BME280;9537;45.594;9.294;2023-07-09T05:17:46;100183.03;;;23.23;79.85
18819;BME280;9537;45.594;9.294;2023-07-09T05:18:47;100188.84;;;23.32;79.45
18819;BME280;9537;45.594;9.294;2023-07-09T05:19:48;100182.84;;;23.42;79.04
18819;BME280;9537;45.594;9.294;2023-07-09T05:20:50;100182.44;;;23.50;78.70
18819;BME280;9537;45.594;9.294;2023-07-09T05:21:50;100180.94;;;23.59;77.98
18819;BME280;9537;45.594;9.294;2023-07-09T05:22:52;100173.00;;;23.69;78.31
18819;BME280;9537;45.594;9.294;2023-07-09T05:23:54;100185.06;;;23.78;77.91
18819;BME280;9537;45.594;9.294;2023-07-09T05:24:55;100185.09;;;23.83;77.75
18819;BME280;9537;45.594;9.294;2023-07-09T05:25:56;100187.88;;;23.89;77.18
18819;BME280;9537;45.594;9.294;2023-07-09T05:26:58;100189.28;;;23.91;76.70
18819;BME280;9537;45.594;9.294;2023-07-09T05:27:59;100187.72;;;23.95;76.31
18819;BME280;9537;45.594;9.294;2023-07-09T05:29:03;100183.16;;;23.96;76.20
18819;BME280;9537;45.594;9.294;2023-07-09T05:30:05;100187.47;;;23.97;76.16